Time;durP1;ratioP1;P1;durP2;ratioP2;P2;SDS_P1;SDS_P2;PMS_P1;PMS_P2;Temp;Humidity;BMP_temperature;BMP_pressure;BME280_temperature;BME280_humidity;BME280_pressure;Samples;Min_cycle;Max_cycle;Signal;HPM_P1;HPM_P2
2022/06/24 00:00:34;;;;;;;3.14;2.26;;;;;;;17.94;62.79;99944.19;455133;116;922518;-74
2022/06/24 00:01:37;;;;;;;3.48;2.31;;;;;;;17.93;62.71;99951.62;454949;116;923118;-75
2022/06/24 00:02:49;;;;;;;3.97;2.37;;;;;;;17.92;62.67;99947.21;455149;116;922940;-75
2022/06/24 00:03:53;;;;;;;4.83;2.35;;;;;;;17.93;62.54;99945.28;455047;116;928945;-75
2022/06/24 00:04:57;;;;;;;2.32;2.12;;;;;;;17.91;62.55;99950.27;455202;116;922679;-75
2022/06/24 00:06:01;;;;;;;2.09;1.89;;;;;;;17.90;62.56;99946.69;455205;116;922544;-75
2022/06/24 00:07:14;;;;;;;2.06;1.86;;;;;;;17.90;62.47;99943.92;455183;116;922882;-74
2022/06/24 00:08:18;;;;;;;3.49;2.18;;;;;;;17.87;62.41;99941.70;455110;116;923009;-74
2022/06/24 00:09:24;;;;;;;2.64;1.94;;;;;;;17.87;62.43;99938.12;455230;116;922445;-75
2022/06/24 00:10:34;;;;;;;3.77;2.21;;;;;;;17.85;62.43;99946.70;455105;116;922871;-76
2022/06/24 00:11:37;;;;;;;3.69;2.40;;;;;;;17.83;62.44;99940.62;455036;116;922528;-75
2022/06/24 00:12:40;;;;;;;2.22;1.95;;;;;;;17.83;62.46;99937.03;455196;116;922634;-75
2022/06/24 00:13:44;;;;;;;2.82;2.22;;;;;;;17.81;62.54;99944.74;455208;116;922539;-75
2022/06/24 00:14:59;;;;;;;2.92;2.59;;;;;;;17.81;62.56;99941.98;455215;116;922601;-75
2022/06/24 00:16:04;;;;;;;3.37;2.51;;;;;;;17.81;62.60;99944.74;455154;116;922554;-75
2022/06/24 00:17:09;;;;;;;2.69;2.21;;;;;;;17.81;62.59;99948.33;455113;116;922672;-75
2022/06/24 00:18:19;;;;;;;2.53;2.27;;;;;;;17.80;62.53;99949.46;456926;116;922751;-75
2022/06/24 00:19:25;;;;;;;4.22;2.63;;;;;;;17.79;62.58;99947.80;458084;116;922883;-75
2022/06/24 00:20:28;;;;;;;3.65;2.72;;;;;;;17.80;62.59;99954.15;457604;116;922994;-74
2022/06/24 00:21:31;;;;;;;2.76;2.56;;;;;;;17.80;62.59;99954.98;457980;116;922615;-75
2022/06/24 00:22:46;;;;;;;3.42;2.52;;;;;;;17.79;62.64;99947.80;458049;116;923730;-75
2022/06/24 00:23:49;;;;;;;5.59;2.96;;;;;;;17.78;62.71;99946.14;457798;116;922895;-75
2022/06/24 00:25:11;;;;;;;2.91;2.49;;;;;;;17.78;62.71;99943.38;461484;114;922503;-75
2022/06/24 00:26:16;;;;;;;3.33;3.07;;;;;;;17.79;62.69;99944.22;463457;114;922441;-75
2022/06/24 00:27:24;;;;;;;4.21;3.06;;;;;;;17.76;62.74;99951.09;463712;114;922558;-75
2022/06/24 00:28:28;;;;;;;3.99;2.69;;;;;;;17.75;62.69;99943.13;463527;114;922548;-75
2022/06/24 00:29:33;;;;;;;3.89;2.94;;;;;;;17.73;62.78;99940.63;461822;114;922919;-75
2022/06/24 00:30:44;;;;;;;4.48;2.92;;;;;;;17.72;62.89;99947.25;455397;116;923071;-75
2022/06/24 00:32:02;;;;;;;5.22;4.02;;;;;;;17.73;63.07;99942.56;455553;116;922587;-75
2022/06/24 00:33:15;;;;;;;4.18;2.88;;;;;;;17.86;63.01;99940.05;476990;110;946918;-75
2022/06/24 00:34:25;;;;;;;3.42;2.63;;;;;;;17.74;62.87;99941.47;465057;114;923064;-75
2022/06/24 00:35:31;;;;;;;2.95;2.48;;;;;;;17.72;62.83;99941.73;465525;114;923131;-75
2022/06/24 00:36:35;;;;;;;6.31;3.07;;;;;;;17.71;62.79;99937.31;453301;116;922989;-75
2022/06/24 00:37:40;;;;;;;2.72;2.39;;;;;;;17.70;62.80;99932.07;465650;114;922919;-75
2022/06/24 00:38:46;;;;;;;4.52;2.96;;;;;;;17.69;62.78;99934.03;465496;114;923076;-75
2022/06/24 00:39:51;;;;;;;5.16;2.39;;;;;;;17.68;62.85;99940.64;465029;114;922473;-75
2022/06/24 00:41:09;;;;;;;4.67;3.04;;;;;;;17.68;62.88;99940.64;465474;114;923510;-76
2022/06/24 00:42:13;;;;;;;3.11;2.51;;;;;;;17.69;62.92;99931.27;465531;114;922557;-75
2022/06/24 00:43:26;;;;;;;3.07;2.72;;;;;;;17.72;62.65;99946.42;465613;114;923115;-74
2022/06/24 00:44:32;;;;;;;3.32;2.62;;;;;;;17.72;62.65;99946.42;465391;114;930298;-75
2022/06/24 00:45:39;;;;;;;3.90;2.92;;;;;;;17.73;62.79;99946.15;464094;114;922524;-75
2022/06/24 00:46:46;;;;;;;3.29;2.76;;;;;;;17.72;62.67;99941.73;465457;114;923102;-75
2022/06/24 00:47:50;;;;;;;2.70;2.48;;;;;;;17.71;62.61;99948.34;453727;117;923394;-75
2022/06/24 00:48:56;;;;;;;2.17;1.91;;;;;;;17.70;62.60;99954.13;465478;114;922459;-74
2022/06/24 00:50:03;;;;;;;2.85;2.56;;;;;;;17.68;62.54;99957.19;453709;117;930376;-75
2022/06/24 00:51:07;;;;;;;3.14;2.62;;;;;;;17.67;62.51;99954.70;468426;112;922518;-75
2022/06/24 00:52:11;;;;;;;3.19;1.91;;;;;;;17.65;62.51;99952.21;471948;112;922488;-75
2022/06/24 00:53:15;;;;;;;2.72;2.49;;;;;;;17.64;62.42;99950.55;472046;112;922521;-75
2022/06/24 00:54:20;;;;;;;2.95;2.34;;;;;;;17.63;62.40;99959.12;471961;112;930323;-72
2022/06/24 00:55:27;;;;;;;4.78;3.03;;;;;;;17.60;62.36;99960.48;471864;112;922602;-75
2022/06/24 00:56:30;;;;;;;4.02;2.25;;;;;;;17.57;62.39;99955.50;471899;112;923139;-75
2022/06/24 00:57:35;;;;;;;2.77;2.49;;;;;;;17.57;62.40;99962.95;472111;112;922421;-75
2022/06/24 00:58:40;;;;;;;2.47;2.27;;;;;;;17.55;62.45;99962.37;471897;112;923818;-75
2022/06/24 00:59:46;;;;;;;2.87;2.61;;;;;;;17.54;62.56;99961.55;471968;112;922485;-75
2022/06/24 01:00:50;;;;;;;6.16;2.59;;;;;;;17.53;62.67;99968.98;471902;112;922869;-75
2022/06/24 01:01:54;;;;;;;2.89;2.12;;;;;;;17.55;62.72;99962.37;472045;112;922884;-75
2022/06/24 01:03:04;;;;;;;3.30;2.45;;;;;;;17.54;62.69;99961.55;472020;112;923146;-76
2022/06/24 01:04:10;;;;;;;3.64;2.58;;;;;;;17.55;62.67;99962.37;471766;112;930692;-74
2022/06/24 01:05:13;;;;;;;3.19;2.30;;;;;;;17.55;62.70;99962.37;471892;112;923055;-75
2022/06/24 01:06:17;;;;;;;3.61;2.77;;;;;;;17.55;62.76;99967.89;472059;112;922863;-75
2022/06/24 01:07:20;;;;;;;3.52;2.52;;;;;;;17.55;62.83;99967.89;472035;112;930515;-75
2022/06/24 01:08:23;;;;;;;3.74;2.64;;;;;;;17.56;62.89;99966.80;472123;112;923042;-76
2022/06/24 01:09:27;;;;;;;4.85;2.69;;;;;;;17.57;62.86;99965.70;472116;112;922592;-74
2022/06/24 01:10:30;;;;;;;4.41;2.51;;;;;;;17.56;62.77;99962.11;472010;112;922527;-76
2022/06/24 01:11:36;;;;;;;3.27;2.50;;;;;;;17.55;62.74;99960.45;472061;112;923227;-76
2022/06/24 01:12:40;;;;;;;3.32;2.48;;;;;;;17.54;62.71;99956.04;471684;112;924499;-76
2022/06/24 01:13:43;;;;;;;2.92;2.71;;;;;;;17.51;62.73;99957.44;472106;112;922583;-74
2022/06/24 01:14:46;;;;;;;3.16;2.89;;;;;;;17.50;62.70;99954.94;463487;112;923005;-75
2022/06/24 01:15:50;;;;;;;3.35;2.89;;;;;;;17.49;62.81;99956.04;463186;114;922526;-75
2022/06/24 01:16:53;;;;;;;4.85;3.06;;;;;;;17.47;62.76;99959.09;463164;114;922504;-75
2022/06/24 01:17:57;;;;;;;3.24;2.94;;;;;;;17.47;62.81;99955.51;463114;114;930687;-75
2022/06/24 01:19:02;;;;;;;3.32;3.02;;;;;;;17.46;62.88;99948.34;463181;114;923518;-75
2022/06/24 01:20:09;;;;;;;4.04;2.62;;;;;;;17.46;63.07;99956.60;462975;114;923377;-75
2022/06/24 01:21:30;;;;;;;6.03;2.92;;;;;;;17.47;63.08;99961.02;462977;114;922509;-75
2022/06/24 01:22:33;;;;;;;;;;;;;;;17.47;63.08;99955.51;466349;114;922091;-75
2022/06/24 01:23:36;;;;;;;3.99;3.09;;;;;;;17.48;63.20;99952.45;463157;114;922631;-75
2022/06/24 01:24:40;;;;;;;3.10;2.62;;;;;;;17.47;63.43;99961.02;463282;114;922939;-75
2022/06/24 01:25:43;;;;;;;3.71;2.61;;;;;;;17.46;63.50;99951.09;463277;114;922816;-76
2022/06/24 01:26:53;;;;;;;4.56;2.74;;;;;;;17.47;63.50;99950.83;463246;114;922963;-76
2022/06/24 01:27:56;;;;;;;3.82;2.93;;;;;;;17.48;63.59;99949.70;463348;114;922414;-75
2022/06/24 01:28:59;;;;;;;3.29;2.71;;;;;;;17.49;63.60;99945.02;463212;113;923002;-76
2022/06/24 01:30:04;;;;;;;3.26;2.96;;;;;;;17.49;63.67;99948.60;463793;114;923055;-75
2022/06/24 01:31:07;;;;;;;4.15;3.04;;;;;;;17.50;63.71;99947.50;463028;114;922485;-75
2022/06/24 01:32:10;;;;;;;4.84;3.08;;;;;;;17.51;63.85;99951.92;463098;114;931057;-74
2022/06/24 01:33:14;;;;;;;3.66;2.71;;;;;;;17.51;63.71;99946.41;463195;114;923024;-74
2022/06/24 01:34:18;;;;;;;5.22;3.09;;;;;;;17.52;63.66;99952.75;463163;112;922528;-74
2022/06/24 01:35:22;;;;;;;3.82;2.84;;;;;;;17.50;63.64;99960.45;463080;114;923042;-74
2022/06/24 01:36:25;;;;;;;3.11;2.78;;;;;;;17.48;63.70;99962.65;463061;114;930444;-74
2022/06/24 01:37:29;;;;;;;4.44;3.12;;;;;;;17.47;63.76;99961.85;463051;114;931104;-75
2022/06/24 01:38:32;;;;;;;4.00;2.97;;;;;;;17.47;63.81;99958.27;463189;114;922816;-74
2022/06/24 01:39:35;;;;;;;3.59;2.76;;;;;;;17.46;63.84;99959.36;463226;114;922996;-75
2022/06/24 01:40:39;;;;;;;3.92;3.27;;;;;;;17.44;63.93;99956.88;463169;114;922519;-74
2022/06/24 01:41:42;;;;;;;5.95;3.28;;;;;;;17.43;63.93;99960.72;463272;114;924646;-74
2022/06/24 01:42:45;;;;;;;3.16;2.71;;;;;;;17.42;63.93;99955.51;463221;114;922486;-73
2022/06/24 01:43:48;;;;;;;4.99;3.79;;;;;;;17.42;64.04;99958.27;463181;114;922862;-75
2022/06/24 01:44:52;;;;;;;4.59;2.64;;;;;;;17.43;64.19;99962.65;463102;114;923023;-75
2022/06/24 01:45:55;;;;;;;3.69;2.58;;;;;;;17.44;64.07;99958.80;463085;114;923000;-75
2022/06/24 01:46:59;;;;;;;3.44;2.59;;;;;;;17.43;63.95;99959.89;463072;114;922935;-76
2022/06/24 01:48:02;;;;;;;4.14;2.58;;;;;;;17.42;63.91;99958.27;463011;114;922527;-75
2022/06/24 01:49:07;;;;;;;3.75;3.02;;;;;;;17.41;63.97;99962.12;462903;114;930566;-75
2022/06/24 01:50:11;;;;;;;4.97;3.37;;;;;;;17.40;63.94;99964.05;462837;114;930467;-75
2022/06/24 01:51:15;;;;;;;4.83;3.04;;;;;;;17.40;64.00;99958.53;467879;112;922488;-75
2022/06/24 01:52:19;;;;;;;3.86;3.26;;;;;;;17.40;63.97;99960.45;471280;112;922553;-75
2022/06/24 01:53:22;;;;;;;4.19;2.84;;;;;;;17.39;63.92;99962.37;471380;112;922592;-75
2022/06/24 01:54:26;;;;;;;3.46;2.78;;;;;;;17.37;63.92;99964.58;471228;112;923188;-75
2022/06/24 01:55:29;;;;;;;3.28;2.98;;;;;;;17.35;63.97;99972.31;471265;112;922485;-75
2022/06/24 01:56:33;;;;;;;4.76;2.93;;;;;;;17.34;64.00;99978.08;471353;112;922666;-75
2022/06/24 01:57:36;;;;;;;3.41;2.36;;;;;;;17.33;64.01;99974.50;471363;112;930559;-75
2022/06/24 01:58:40;;;;;;;3.02;2.73;;;;;;;17.33;64.04;99973.67;471345;112;923197;-75
2022/06/24 01:59:43;;;;;;;4.40;2.83;;;;;;;17.33;64.08;99979.18;471227;112;930478;-75
2022/06/24 02:00:47;;;;;;;4.49;3.49;;;;;;;17.34;64.21;99976.16;471281;112;930849;-75
2022/06/24 02:01:50;;;;;;;6.67;3.15;;;;;;;17.36;64.15;99975.89;471402;112;923217;-75
2022/06/24 02:02:53;;;;;;;2.87;2.67;;;;;;;17.38;64.15;99977.26;471405;112;922873;-76
2022/06/24 02:03:57;;;;;;;5.06;3.24;;;;;;;17.39;64.19;99973.41;471330;112;922575;-74
2022/06/24 02:05:00;;;;;;;3.27;2.76;;;;;;;17.41;64.19;99973.97;471407;112;923045;-74
2022/06/24 02:06:05;;;;;;;4.34;2.86;;;;;;;17.43;64.17;99977.26;471343;112;923079;-75
2022/06/24 02:07:08;;;;;;;3.82;2.77;;;;;;;17.45;64.17;99974.23;471254;112;922817;-75
2022/06/24 02:08:11;;;;;;;3.37;2.73;;;;;;;17.45;63.99;99974.23;471300;112;922920;-75
2022/06/24 02:09:16;;;;;;;4.63;2.58;;;;;;;17.45;63.96;99969.55;471250;112;922506;-75
2022/06/24 02:14:26;;;;;;;3.26;2.48;;;;;;;17.53;63.98;99967.36;462918;114;922454;-75
2022/06/24 02:15:30;;;;;;;3.05;2.71;;;;;;;17.54;64.02;99967.06;463047;114;922750;-76
2022/06/24 02:16:33;;;;;;;3.49;3.18;;;;;;;17.61;64.14;99966.83;462968;114;930336;-75
2022/06/24 02:17:37;;;;;;;2.78;2.55;;;;;;;17.61;64.14;99966.83;462975;114;930480;-76
2022/06/24 02:18:40;;;;;;;3.52;2.86;;;;;;;17.61;63.76;99966.83;463116;113;923000;-74
2022/06/24 02:19:44;;;;;;;4.28;2.84;;;;;;;17.61;63.66;99964.90;463032;114;922455;-75
2022/06/24 02:20:47;;;;;;;4.20;3.24;;;;;;;17.62;63.60;99966.56;462947;114;930556;-75
2022/06/24 02:21:50;;;;;;;5.26;3.17;;;;;;;17.64;63.59;99966.30;463147;114;923300;-74
2022/06/24 02:22:53;;;;;;;4.59;2.74;;;;;;;17.64;63.53;99967.09;463125;114;923036;-74
2022/06/24 02:23:57;;;;;;;2.98;2.72;;;;;;;17.65;63.41;99965.16;463116;114;923020;-75
2022/06/24 02:25:00;;;;;;;3.46;2.67;;;;;;;17.65;63.30;99963.23;463166;114;922958;-75
2022/06/24 02:26:04;;;;;;;3.18;2.81;;;;;;;17.66;63.21;99975.09;463076;114;923068;-74
2022/06/24 02:27:07;;;;;;;4.33;2.68;;;;;;;17.65;63.12;99963.23;462978;114;930395;-74
2022/06/24 02:28:10;;;;;;;3.32;2.63;;;;;;;17.65;63.06;99963.23;463071;114;923016;-74
2022/06/24 02:29:14;;;;;;;3.70;2.91;;;;;;;17.66;63.06;99972.34;463164;113;922585;-74
2022/06/24 02:30:19;;;;;;;4.64;2.91;;;;;;;17.66;63.04;99969.58;468912;112;922533;-74
2022/06/24 02:31:22;;;;;;;4.60;2.87;;;;;;;17.66;63.01;99970.41;471392;112;922537;-74
2022/06/24 02:32:25;;;;;;;3.26;2.67;;;;;;;17.68;62.91;99962.70;471384;112;922980;-76
2022/06/24 02:33:29;;;;;;;3.04;2.59;;;;;;;17.70;62.98;99965.98;471320;112;922545;-74
2022/06/24 02:34:33;;;;;;;3.43;3.01;;;;;;;17.73;62.82;99962.70;462987;114;922554;-74
2022/06/24 02:35:37;;;;;;;2.85;2.65;;;;;;;17.76;62.74;99964.88;463057;114;930554;-74
2022/06/24 02:36:41;;;;;;;3.02;2.71;;;;;;;17.78;62.64;99957.17;462998;114;922576;-74
2022/06/24 02:37:44;;;;;;;4.30;2.91;;;;;;;17.81;62.67;99964.05;463012;114;930604;-74
2022/06/24 02:38:47;;;;;;;3.59;2.51;;;;;;;17.85;62.48;99959.66;463106;114;922675;-75
2022/06/24 02:39:50;;;;;;;2.95;2.44;;;;;;;17.87;62.36;99965.70;463137;114;922940;-75
2022/06/24 02:40:54;;;;;;;4.59;2.91;;;;;;;17.88;62.31;99967.36;463079;114;922879;-75
2022/06/24 02:41:57;;;;;;;5.16;3.41;;;;;;;17.90;62.20;99959.64;463161;114;922983;-74
2022/06/24 02:43:01;;;;;;;4.92;3.01;;;;;;;17.88;61.96;99962.67;463142;114;923143;-74
2022/06/24 02:44:04;;;;;;;5.53;2.94;;;;;;;17.87;61.84;99962.94;463059;114;922973;-74
2022/06/24 02:45:08;;;;;;;3.19;2.89;;;;;;;17.85;61.83;99962.41;463097;114;922472;-75
2022/06/24 02:46:17;;;;;;;4.66;2.95;;;;;;;17.83;61.91;99965.44;463167;114;922588;-75
2022/06/24 02:47:21;;;;;;;3.71;3.41;;;;;;;17.86;62.07;99964.07;462973;114;922503;-75
2022/06/24 02:48:24;;;;;;;3.57;2.95;;;;;;;17.87;62.15;99969.28;463240;114;923022;-74
2022/06/24 02:49:28;;;;;;;4.71;3.21;;;;;;;17.90;62.20;99968.75;463361;114;922860;-75
2022/06/24 02:50:31;;;;;;;3.96;3.24;;;;;;;17.93;62.23;99959.08;463470;114;922563;-75
2022/06/24 02:51:34;;;;;;;4.11;3.26;;;;;;;17.96;62.22;99958.53;463515;114;922162;-75
2022/06/24 02:52:38;;;;;;;3.21;2.91;;;;;;;17.99;62.26;99960.72;463516;114;922550;-75
2022/06/24 02:53:43;;;;;;;3.86;3.46;;;;;;;18.02;62.10;99967.62;463479;114;923110;-75
2022/06/24 02:54:46;;;;;;;4.17;3.78;;;;;;;18.03;62.10;99958.25;463292;114;922548;-74
2022/06/24 02:55:52;;;;;;;3.59;2.95;;;;;;;18.07;62.02;99964.86;463429;114;922517;-74
2022/06/24 02:56:55;;;;;;;4.12;3.71;;;;;;;18.08;61.96;99961.00;463274;114;922567;-75
2022/06/24 02:57:59;;;;;;;4.92;4.28;;;;;;;18.08;61.99;99959.07;463433;114;922534;-73
2022/06/24 02:59:02;;;;;;;6.01;3.69;;;;;;;18.08;61.70;99961.00;463351;114;923196;-73
2022/06/24 03:00:06;;;;;;;3.91;3.24;;;;;;;18.08;61.54;99961.00;463439;114;922740;-73
2022/06/24 03:01:10;;;;;;;4.88;3.98;;;;;;;18.06;61.40;99957.68;463434;114;922505;-74
2022/06/24 03:02:14;;;;;;;7.24;3.48;;;;;;;18.04;61.36;99957.95;463331;114;922769;-74
2022/06/24 03:03:19;;;;;;;5.34;3.95;;;;;;;18.02;61.35;99957.42;463554;114;922379;-75
2022/06/24 03:04:23;;;;;;;4.67;3.64;;;;;;;18.02;61.38;99956.59;463298;114;922925;-75
2022/06/24 03:05:27;;;;;;;5.61;4.41;;;;;;;18.02;61.49;99954.66;463559;114;922547;-74
2022/06/24 03:06:30;;;;;;;4.66;3.72;;;;;;;18.03;61.41;99952.73;463680;114;922415;-75
2022/06/24 03:07:34;;;;;;;5.16;4.09;;;;;;;18.03;61.49;99955.50;463817;114;922674;-75
2022/06/24 03:08:37;;;;;;;5.01;3.51;;;;;;;18.03;61.47;99945.26;463824;113;922266;-75
2022/06/24 03:09:42;;;;;;;6.02;4.08;;;;;;;18.02;61.44;99943.62;462876;114;922177;-74
2022/06/24 03:10:46;;;;;;;4.54;4.15;;;;;;;18.02;61.49;99951.91;463761;114;922488;-76
2022/06/24 03:11:49;;;;;;;7.72;3.90;;;;;;;18.04;61.56;99952.44;463782;114;922257;-75
2022/06/24 03:12:52;;;;;;;5.33;4.15;;;;;;;18.07;61.62;99953.82;463806;114;922820;-74
2022/06/24 03:13:56;;;;;;;4.90;4.04;;;;;;;18.07;61.55;99954.66;463767;113;923201;-75
2022/06/24 03:14:59;;;;;;;4.57;3.96;;;;;;;18.08;61.89;99958.24;463824;114;922881;-74
2022/06/24 03:16:03;;;;;;;4.12;3.48;;;;;;;18.08;61.89;99958.24;463635;114;922280;-76
2022/06/24 03:17:06;;;;;;;4.96;3.64;;;;;;;18.09;61.74;99960.70;463672;114;922652;-76
2022/06/24 03:18:11;;;;;;;9.60;3.51;;;;;;;18.11;61.81;99964.02;463674;114;922388;-76
2022/06/24 03:19:14;;;;;;;6.61;3.83;;;;;;;18.13;61.90;99969.27;463454;113;922451;-75
2022/06/24 03:20:20;;;;;;;5.88;3.84;;;;;;;18.15;61.89;99962.34;463490;114;922358;-76
2022/06/24 03:21:25;;;;;;;4.15;3.85;;;;;;;18.18;61.85;99963.73;463717;114;922425;-76
2022/06/24 03:22:28;;;;;;;4.26;3.44;;;;;;;18.20;61.76;99967.84;463572;114;922992;-76
2022/06/24 03:23:32;;;;;;;7.81;4.72;;;;;;;18.21;61.70;99957.64;463653;114;922562;-75
2022/06/24 03:24:35;;;;;;;7.02;3.71;;;;;;;18.22;61.61;99957.37;463783;113;922339;-75
2022/06/24 03:25:39;;;;;;;3.96;3.61;;;;;;;18.23;61.60;99952.67;463716;114;922719;-76
2022/06/24 03:26:42;;;;;;;5.19;4.37;;;;;;;18.25;61.59;99947.69;463762;114;922803;-75
2022/06/24 03:27:47;;;;;;;5.53;5.02;;;;;;;18.26;61.58;99954.86;463468;114;922588;-76
2022/06/24 03:28:50;;;;;;;6.26;5.52;;;;;;;18.27;61.55;99949.07;463566;113;922960;-75
2022/06/24 03:29:53;;;;;;;5.85;5.17;;;;;;;18.29;61.55;99954.31;463804;114;922319;-75
2022/06/24 03:30:57;;;;;;;6.47;5.91;;;;;;;18.32;61.55;99950.98;463784;114;922426;-75
2022/06/24 03:32:00;;;;;;;5.56;4.96;;;;;;;18.36;61.61;99962.31;463802;114;922817;-76
2022/06/24 03:33:04;;;;;;;5.69;5.24;;;;;;;18.39;61.34;99958.97;463673;114;923320;-75
2022/06/24 03:34:07;;;;;;;8.81;5.60;;;;;;;18.41;61.20;99959.53;467463;113;922606;-75
2022/06/24 03:35:11;;;;;;;7.96;6.80;;;;;;;18.43;60.97;99962.81;470569;113;930366;-75
2022/06/24 03:36:14;;;;;;;6.26;5.72;;;;;;;18.43;60.76;99958.13;470568;113;922340;-75
2022/06/24 03:37:17;;;;;;;6.88;6.21;;;;;;;18.44;60.66;99958.95;470704;113;930513;-75
2022/06/24 03:38:21;;;;;;;7.05;6.44;;;;;;;18.44;60.63;99957.02;470635;113;922249;-75
2022/06/24 03:39:24;;;;;;;6.82;6.14;;;;;;;18.47;60.59;99959.20;470749;113;922373;-75
2022/06/24 03:40:28;;;;;;;6.66;6.11;;;;;;;18.50;60.52;99963.34;470712;113;922326;-76
2022/06/24 03:41:33;;;;;;;6.83;6.05;;;;;;;18.53;60.38;99962.77;470722;113;922516;-74
2022/06/24 03:42:37;;;;;;;6.78;6.09;;;;;;;18.56;60.23;99960.32;470528;113;930431;-75
2022/06/24 03:43:40;;;;;;;6.91;6.33;;;;;;;18.57;59.92;99967.50;470652;113;922797;-76
2022/06/24 03:44:44;;;;;;;8.10;6.41;;;;;;;18.58;59.79;99962.81;470604;113;930281;-77
2022/06/24 03:45:47;;;;;;;6.55;6.02;;;;;;;18.58;59.70;99971.09;470517;113;930232;-74
2022/06/24 03:46:51;;;;;;;6.11;5.49;;;;;;;18.58;59.78;99971.09;470085;113;922732;-74
2022/06/24 03:47:54;;;;;;;6.44;5.86;;;;;;;18.56;59.57;99963.08;470162;113;930395;-75
2022/06/24 03:48:58;;;;;;;4.90;4.49;;;;;;;18.56;59.46;99965.84;470069;113;922530;-75
2022/06/24 03:50:01;;;;;;;6.57;5.24;;;;;;;18.55;59.49;99961.42;470295;113;923384;-76
2022/06/24 03:51:04;;;;;;;5.48;4.96;;;;;;;18.56;59.41;99963.08;466835;113;922345;-75
2022/06/24 03:52:08;;;;;;;5.13;4.58;;;;;;;18.53;59.22;99966.36;461907;115;922631;-74
2022/06/24 03:53:12;;;;;;;6.29;5.72;;;;;;;18.54;59.23;99964.43;461818;115;922960;-75
2022/06/24 03:54:15;;;;;;;5.72;5.14;;;;;;;18.53;59.27;99960.84;461832;115;922835;-75
2022/06/24 03:55:19;;;;;;;6.05;5.00;;;;;;;18.52;59.25;99964.73;461799;115;930457;-74
2022/06/24 03:56:22;;;;;;;6.33;5.74;;;;;;;18.51;59.23;99965.84;461815;115;930441;-74
2022/06/24 03:57:26;;;;;;;5.61;4.85;;;;;;;18.49;59.26;99957.00;461814;115;930561;-75
2022/06/24 03:58:29;;;;;;;6.67;6.04;;;;;;;18.49;59.37;99957.00;461948;115;923174;-74
2022/06/24 03:59:32;;;;;;;12.95;4.98;;;;;;;18.50;59.44;99966.94;461904;115;923410;-76
2022/06/24 04:00:36;;;;;;;6.93;5.16;;;;;;;18.49;59.36;99961.69;461920;115;922514;-74
2022/06/24 04:01:39;;;;;;;6.80;5.42;;;;;;;18.48;59.38;99966.38;461938;115;922523;-75
2022/06/24 04:02:44;;;;;;;7.37;5.12;;;;;;;18.49;59.36;99962.52;461839;114;922964;-75
2022/06/24 04:03:49;;;;;;;6.73;4.94;;;;;;;18.48;59.42;99960.86;461677;115;922522;-75
2022/06/24 04:04:52;;;;;;;6.41;5.29;;;;;;;18.48;59.43;99958.09;461867;115;922675;-76
2022/06/24 04:05:56;;;;;;;5.19;4.67;;;;;;;18.48;59.45;99965.55;461971;115;922817;-76
2022/06/24 04:06:59;;;;;;;7.19;4.73;;;;;;;18.47;59.47;99959.20;461887;115;922947;-75
2022/06/24 04:08:02;;;;;;;6.05;5.27;;;;;;;18.49;59.54;99961.69;461947;115;923408;-75
2022/06/24 04:09:05;;;;;;;4.76;4.08;;;;;;;18.48;59.71;99960.86;461896;115;922804;-76
2022/06/24 04:10:10;;;;;;;6.93;4.15;;;;;;;18.49;59.85;99953.41;461816;113;923082;-75
2022/06/24 04:11:15;;;;;;;5.96;4.85;;;;;;;18.50;59.96;99958.66;461796;115;922594;-75
2022/06/24 04:12:18;;;;;;;6.57;4.61;;;;;;;18.51;60.01;99963.08;461642;115;931398;-75
2022/06/24 04:13:22;;;;;;;4.47;4.04;;;;;;;18.53;60.03;99960.84;461893;115;922514;-75
2022/06/24 04:15:49;;;;;;;4.27;3.88;;;;;;;18.55;60.08;99966.95;461719;115;922575;-76
2022/06/24 04:16:53;;;;;;;6.50;5.03;;;;;;;18.56;60.04;99957.56;461688;115;923031;-75
2022/06/24 04:17:56;;;;;;;5.13;4.42;;;;;;;18.61;59.93;99971.34;452613;117;923466;-75
2022/06/24 04:19:00;;;;;;;6.80;4.64;;;;;;;18.61;59.93;99971.34;452552;117;922813;-75
2022/06/24 04:20:03;;;;;;;5.56;4.49;;;;;;;18.65;59.96;99971.59;452691;117;923352;-75
2022/06/24 04:21:11;;;;;;;5.31;4.72;;;;;;;18.68;59.91;99973.80;452616;117;922835;-73
2022/06/24 04:22:15;;;;;;;8.44;5.09;;;;;;;18.72;59.94;99969.36;452527;117;923326;-75
2022/06/24 04:23:18;;;;;;;7.42;4.51;;;;;;;18.75;59.91;99968.78;452697;117;923039;-74
2022/06/24 04:24:21;;;;;;;5.51;4.13;;;;;;;18.79;59.90;99971.83;452673;117;922800;-75
2022/06/24 04:25:25;;;;;;;5.06;4.41;;;;;;;18.82;59.92;99974.83;452650;117;922519;-75
2022/06/24 04:26:28;;;;;;;5.70;4.53;;;;;;;18.86;59.78;99973.14;452628;117;922563;-74
2022/06/24 04:27:32;;;;;;;5.12;4.60;;;;;;;18.90;59.77;99978.95;452667;117;922813;-77
2022/06/24 04:28:36;;;;;;;4.91;4.28;;;;;;;18.94;59.69;99980.02;452699;117;923427;-74
2022/06/24 04:29:39;;;;;;;5.70;4.15;;;;;;;18.97;59.65;99980.27;450582;117;922543;-75
2022/06/24 04:30:42;;;;;;;4.84;4.35;;;;;;;19.01;59.61;99980.55;452702;117;922550;-75
2022/06/24 04:31:46;;;;;;;4.94;3.70;;;;;;;19.05;59.60;99981.62;452564;117;922415;-75
2022/06/24 04:32:49;;;;;;;4.45;3.92;;;;;;;19.09;59.65;99978.00;452662;117;922870;-76
2022/06/24 04:33:52;;;;;;;5.42;4.28;;;;;;;19.13;59.45;99976.30;452604;117;922799;-74
2022/06/24 04:34:56;;;;;;;9.16;4.42;;;;;;;19.17;59.31;99973.81;453803;116;922404;-75
2022/06/24 04:35:59;;;;;;;4.13;3.76;;;;;;;19.21;59.19;99968.53;463120;114;922528;-75
2022/06/24 04:37:02;;;;;;;5.91;4.60;;;;;;;19.24;59.09;99974.30;463173;114;922764;-76
2022/06/24 04:38:06;;;;;;;4.41;4.02;;;;;;;19.26;59.00;99980.38;463056;114;922896;-74
2022/06/24 04:39:09;;;;;;;4.21;3.77;;;;;;;19.28;58.98;99974.57;463016;114;930710;-74
2022/06/24 04:40:13;;;;;;;5.12;4.40;;;;;;;19.30;58.92;99975.09;463011;114;922520;-75
2022/06/24 04:41:17;;;;;;;4.07;3.66;;;;;;;19.32;58.90;99979.23;463041;114;922801;-76
2022/06/24 04:42:20;;;;;;;5.60;3.79;;;;;;;19.35;58.90;99978.65;462950;114;930584;-76
2022/06/24 04:43:24;;;;;;;4.72;3.97;;;;;;;19.39;58.76;99979.75;462972;114;930500;-74
2022/06/24 04:44:27;;;;;;;11.80;4.61;;;;;;;19.41;58.61;99977.50;463051;114;922829;-75
2022/06/24 04:45:30;;;;;;;4.70;3.95;;;;;;;19.44;58.41;99974.17;463107;114;922860;-76
2022/06/24 04:46:35;;;;;;;4.84;4.34;;;;;;;19.46;58.30;99977.49;462956;114;922564;-76
2022/06/24 04:47:39;;;;;;;4.20;3.27;;;;;;;19.48;58.24;99978.05;463008;114;922537;-75
2022/06/24 04:48:42;;;;;;;6.29;3.76;;;;;;;19.50;58.16;99978.59;462986;114;922991;-75
2022/06/24 04:49:45;;;;;;;4.41;3.60;;;;;;;19.51;58.05;99977.48;453715;117;930538;-75
2022/06/24 04:50:49;;;;;;;6.34;3.67;;;;;;;19.53;58.01;99983.53;463064;114;922593;-74
2022/06/24 04:51:52;;;;;;;5.86;3.58;;;;;;;19.55;57.99;99984.08;463049;114;922460;-75
2022/06/24 04:52:55;;;;;;;3.73;3.21;;;;;;;19.57;57.99;99987.36;463097;114;924681;-74
2022/06/24 04:53:59;;;;;;;3.69;3.24;;;;;;;19.60;57.91;99987.91;463060;114;923082;-74
2022/06/24 04:55:04;;;;;;;5.16;3.39;;;;;;;19.62;57.69;99986.52;463008;114;922645;-74
2022/06/24 04:56:07;;;;;;;3.92;2.76;;;;;;;19.64;57.76;99984.27;462933;114;922691;-75
2022/06/24 04:57:11;;;;;;;4.60;2.85;;;;;;;19.66;57.55;99984.82;463048;114;922593;-75
2022/06/24 04:58:14;;;;;;;3.96;2.58;;;;;;;19.67;57.57;99982.89;463048;114;923221;-76
2022/06/24 04:59:18;;;;;;;4.71;2.89;;;;;;;19.70;57.84;99985.06;463088;114;922709;-74
2022/06/24 05:00:23;;;;;;;3.92;3.05;;;;;;;19.70;57.84;99985.06;462770;114;923185;-75
2022/06/24 05:01:28;;;;;;;3.19;2.76;;;;;;;19.73;57.63;99979.80;463052;114;922959;-74
2022/06/24 05:02:31;;;;;;;6.85;3.55;;;;;;;19.76;57.64;99973.66;462884;114;922523;-75
2022/06/24 05:03:35;;;;;;;4.07;2.61;;;;;;;19.78;57.32;99976.98;463004;114;922911;-74
2022/06/24 05:04:39;;;;;;;4.81;2.68;;;;;;;19.78;57.13;99979.75;462994;114;922920;-74